Montour, Iowa
Current Conditions -  °F | °C
As of 8:23 PM on Wednesday 26 Nov 2014 (Local Time) from KMIW Reporting Station
Overcast Overcast  
Wind Chill: 15°   Ceiling: 6000
Heat Index: 26°   Visibility: 7mi
Dew Point: 23°   Wind: 13mph
Humidity: 88%   Direction: 350°N
Pressure: 30.25"   Gusts: NA
Location:  41.98°N, 92.71°W
Report Text: KMIW 270223Z AUTO 35011KT 7SM SCT010 BKN060 OVC080 M03/M05 A3025 RMK AO2 T10331050
Loading
Personal Weather Stations






























Interactive Weather Map New forecast layout! Learn more

10-Day Weather Forecast

Advertisements
Track Severe Weather on mobile